sensor_id;sensor_type;location;lat;lon;timestamp;P1;durP1;ratioP1;P2;durP2;ratioP2
12469;SDS011;36499;46.484;13.832;2024-01-30T00:01:15;7.40;;;4.13;;
12469;SDS011;36499;46.484;13.832;2024-01-30T00:03:42;9.60;;;4.40;;
12469;SDS011;36499;46.484;13.832;2024-01-30T00:06:08;8.97;;;3.90;;
12469;SDS011;36499;46.484;13.832;2024-01-30T00:08:35;9.03;;;4.00;;
12469;SDS011;36499;46.484;13.832;2024-01-30T00:11:03;9.43;;;4.70;;
12469;SDS011;36499;46.484;13.832;2024-01-30T00:13:30;11.90;;;3.93;;
12469;SDS011;36499;46.484;13.832;2024-01-30T00:15:57;11.50;;;4.63;;
12469;SDS011;36499;46.484;13.832;2024-01-30T00:18:24;9.50;;;3.87;;
12469;SDS011;36499;46.484;13.832;2024-01-30T00:20:51;8.23;;;3.60;;
12469;SDS011;36499;46.484;13.832;2024-01-30T00:23:18;7.67;;;3.53;;
12469;SDS011;36499;46.484;13.832;2024-01-30T00:25:45;6.97;;;3.50;;
12469;SDS011;36499;46.484;13.832;2024-01-30T00:28:13;8.40;;;3.77;;
12469;SDS011;36499;46.484;13.832;2024-01-30T00:30:39;6.63;;;3.37;;
12469;SDS011;36499;46.484;13.832;2024-01-30T00:33:06;8.20;;;3.63;;
12469;SDS011;36499;46.484;13.832;2024-01-30T00:35:34;7.33;;;3.17;;
12469;SDS011;36499;46.484;13.832;2024-01-30T00:38:01;4.70;;;2.83;;
12469;SDS011;36499;46.484;13.832;2024-01-30T00:40:27;4.50;;;3.03;;
12469;SDS011;36499;46.484;13.832;2024-01-30T00:42:54;6.47;;;2.70;;
12469;SDS011;36499;46.484;13.832;2024-01-30T00:45:22;3.33;;;2.30;;
12469;SDS011;36499;46.484;13.832;2024-01-30T00:47:49;3.60;;;2.13;;
12469;SDS011;36499;46.484;13.832;2024-01-30T00:50:16;5.27;;;2.20;;
12469;SDS011;36499;46.484;13.832;2024-01-30T00:52:43;3.40;;;2.27;;
12469;SDS011;36499;46.484;13.832;2024-01-30T00:55:10;3.93;;;2.43;;
12469;SDS011;36499;46.484;13.832;2024-01-30T00:57:37;5.80;;;2.70;;
12469;SDS011;36499;46.484;13.832;2024-01-30T01:00:04;4.03;;;2.40;;
12469;SDS011;36499;46.484;13.832;2024-01-30T01:02:35;5.77;;;2.60;;
12469;SDS011;36499;46.484;13.832;2024-01-30T01:05:02;5.70;;;2.47;;
12469;SDS011;36499;46.484;13.832;2024-01-30T01:07:29;4.13;;;2.70;;
12469;SDS011;36499;46.484;13.832;2024-01-30T01:09:56;4.47;;;2.30;;
12469;SDS011;36499;46.484;13.832;2024-01-30T01:12:23;3.83;;;2.40;;
12469;SDS011;36499;46.484;13.832;2024-01-30T01:14:50;4.77;;;2.67;;
12469;SDS011;36499;46.484;13.832;2024-01-30T01:17:17;3.27;;;2.20;;
12469;SDS011;36499;46.484;13.832;2024-01-30T01:19:45;5.47;;;2.43;;
12469;SDS011;36499;46.484;13.832;2024-01-30T01:22:12;3.73;;;2.30;;
12469;SDS011;36499;46.484;13.832;2024-01-30T01:24:39;4.93;;;2.47;;
12469;SDS011;36499;46.484;13.832;2024-01-30T01:27:05;3.33;;;1.93;;
12469;SDS011;36499;46.484;13.832;2024-01-30T01:29:32;4.83;;;2.70;;
12469;SDS011;36499;46.484;13.832;2024-01-30T01:31:59;4.07;;;2.40;;
12469;SDS011;36499;46.484;13.832;2024-01-30T01:34:26;3.73;;;1.90;;
12469;SDS011;36499;46.484;13.832;2024-01-30T01:36:54;5.70;;;2.30;;
12469;SDS011;36499;46.484;13.832;2024-01-30T01:39:21;8.03;;;2.50;;
12469;SDS011;36499;46.484;13.832;2024-01-30T01:41:48;3.00;;;1.93;;
12469;SDS011;36499;46.484;13.832;2024-01-30T01:44:15;7.10;;;4.10;;
12469;SDS011;36499;46.484;13.832;2024-01-30T01:46:43;6.43;;;3.07;;
12469;SDS011;36499;46.484;13.832;2024-01-30T01:49:10;7.70;;;3.17;;
12469;SDS011;36499;46.484;13.832;2024-01-30T01:51:37;7.20;;;3.40;;
12469;SDS011;36499;46.484;13.832;2024-01-30T01:54:07;5.00;;;2.83;;
12469;SDS011;36499;46.484;13.832;2024-01-30T01:56:35;5.40;;;2.60;;
12469;SDS011;36499;46.484;13.832;2024-01-30T01:59:04;4.23;;;2.70;;
12469;SDS011;36499;46.484;13.832;2024-01-30T02:01:33;4.57;;;2.60;;
12469;SDS011;36499;46.484;13.832;2024-01-30T02:04:00;8.67;;;3.90;;
12469;SDS011;36499;46.484;13.832;2024-01-30T02:06:27;8.10;;;3.50;;
12469;SDS011;36499;46.484;13.832;2024-01-30T02:08:55;4.23;;;2.17;;
12469;SDS011;36499;46.484;13.832;2024-01-30T02:11:23;3.63;;;2.00;;
12469;SDS011;36499;46.484;13.832;2024-01-30T02:13:50;7.20;;;3.03;;
12469;SDS011;36499;46.484;13.832;2024-01-30T02:16:17;4.90;;;2.97;;
12469;SDS011;36499;46.484;13.832;2024-01-30T02:18:44;5.50;;;2.93;;
12469;SDS011;36499;46.484;13.832;2024-01-30T02:21:14;6.83;;;3.00;;
12469;SDS011;36499;46.484;13.832;2024-01-30T02:23:42;5.40;;;2.67;;
12469;SDS011;36499;46.484;13.832;2024-01-30T02:26:09;5.53;;;3.03;;
12469;SDS011;36499;46.484;13.832;2024-01-30T02:28:37;4.53;;;2.50;;
12469;SDS011;36499;46.484;13.832;2024-01-30T02:31:04;6.87;;;2.70;;
12469;SDS011;36499;46.484;13.832;2024-01-30T02:33:31;3.23;;;2.00;;
12469;SDS011;36499;46.484;13.832;2024-01-30T02:35:58;4.00;;;1.90;;
12469;SDS011;36499;46.484;13.832;2024-01-30T02:38:26;3.20;;;1.93;;
12469;SDS011;36499;46.484;13.832;2024-01-30T02:40:54;3.47;;;2.20;;
12469;SDS011;36499;46.484;13.832;2024-01-30T02:43:20;5.13;;;2.43;;
12469;SDS011;36499;46.484;13.832;2024-01-30T02:45:47;2.83;;;1.70;;
12469;SDS011;36499;46.484;13.832;2024-01-30T02:48:14;3.17;;;1.80;;
12469;SDS011;36499;46.484;13.832;2024-01-30T02:50:41;2.67;;;1.97;;
12469;SDS011;36499;46.484;13.832;2024-01-30T02:53:08;3.50;;;2.40;;
12469;SDS011;36499;46.484;13.832;2024-01-30T02:55:36;3.10;;;1.93;;
12469;SDS011;36499;46.484;13.832;2024-01-30T02:58:03;2.60;;;1.80;;
12469;SDS011;36499;46.484;13.832;2024-01-30T03:00:30;3.07;;;2.13;;
12469;SDS011;36499;46.484;13.832;2024-01-30T03:02:56;3.57;;;2.03;;
12469;SDS011;36499;46.484;13.832;2024-01-30T03:08:45;4.70;;;2.23;;
12469;SDS011;36499;46.484;13.832;2024-01-30T03:11:13;3.80;;;1.83;;
12469;SDS011;36499;46.484;13.832;2024-01-30T03:13:40;3.57;;;1.73;;
12469;SDS011;36499;46.484;13.832;2024-01-30T03:16:08;2.03;;;1.60;;
12469;SDS011;36499;46.484;13.832;2024-01-30T03:18:35;3.40;;;1.70;;
12469;SDS011;36499;46.484;13.832;2024-01-30T03:21:01;3.00;;;1.80;;
12469;SDS011;36499;46.484;13.832;2024-01-30T03:23:28;2.83;;;1.87;;
12469;SDS011;36499;46.484;13.832;2024-01-30T03:25:57;3.27;;;1.50;;
12469;SDS011;36499;46.484;13.832;2024-01-30T03:28:25;3.97;;;2.10;;
12469;SDS011;36499;46.484;13.832;2024-01-30T03:30:52;3.40;;;2.10;;
12469;SDS011;36499;46.484;13.832;2024-01-30T03:33:19;2.87;;;1.97;;
12469;SDS011;36499;46.484;13.832;2024-01-30T03:35:46;7.07;;;2.17;;
12469;SDS011;36499;46.484;13.832;2024-01-30T03:38:13;3.53;;;2.00;;
12469;SDS011;36499;46.484;13.832;2024-01-30T03:40:39;3.23;;;1.73;;
12469;SDS011;36499;46.484;13.832;2024-01-30T03:43:06;4.60;;;1.97;;
12469;SDS011;36499;46.484;13.832;2024-01-30T03:45:34;3.43;;;1.60;;
12469;SDS011;36499;46.484;13.832;2024-01-30T03:48:01;2.33;;;1.80;;
12469;SDS011;36499;46.484;13.832;2024-01-30T03:50:28;3.73;;;1.90;;
12469;SDS011;36499;46.484;13.832;2024-01-30T03:52:55;2.73;;;2.00;;
12469;SDS011;36499;46.484;13.832;2024-01-30T03:55:22;4.97;;;2.27;;
12469;SDS011;36499;46.484;13.832;2024-01-30T03:57:49;3.87;;;2.10;;
12469;SDS011;36499;46.484;13.832;2024-01-30T04:00:15;4.30;;;2.23;;
12469;SDS011;36499;46.484;13.832;2024-01-30T04:02:44;2.27;;;1.50;;
12469;SDS011;36499;46.484;13.832;2024-01-30T04:05:11;4.70;;;2.20;;
12469;SDS011;36499;46.484;13.832;2024-01-30T04:07:38;4.67;;;2.30;;
12469;SDS011;36499;46.484;13.832;2024-01-30T04:10:05;3.97;;;1.70;;
12469;SDS011;36499;46.484;13.832;2024-01-30T04:12:33;2.53;;;1.83;;
12469;SDS011;36499;46.484;13.832;2024-01-30T04:15:00;2.93;;;2.00;;
12469;SDS011;36499;46.484;13.832;2024-01-30T04:17:26;4.17;;;1.70;;
12469;SDS011;36499;46.484;13.832;2024-01-30T04:19:55;2.13;;;1.53;;
12469;SDS011;36499;46.484;13.832;2024-01-30T04:22:22;3.47;;;1.83;;
12469;SDS011;36499;46.484;13.832;2024-01-30T04:24:49;3.77;;;2.00;;
12469;SDS011;36499;46.484;13.832;2024-01-30T04:27:16;2.87;;;1.80;;
12469;SDS011;36499;46.484;13.832;2024-01-30T04:29:42;4.60;;;1.93;;
12469;SDS011;36499;46.484;13.832;2024-01-30T04:32:09;7.43;;;2.13;;
12469;SDS011;36499;46.484;13.832;2024-01-30T04:34:36;5.30;;;1.93;;
12469;SDS011;36499;46.484;13.832;2024-01-30T04:37:04;6.57;;;2.60;;
12469;SDS011;36499;46.484;13.832;2024-01-30T04:39:32;6.80;;;2.10;;
12469;SDS011;36499;46.484;13.832;2024-01-30T04:41:59;4.50;;;2.10;;
12469;SDS011;36499;46.484;13.832;2024-01-30T04:44:26;4.07;;;1.80;;
12469;SDS011;36499;46.484;13.832;2024-01-30T04:46:53;3.97;;;2.00;;
12469;SDS011;36499;46.484;13.832;2024-01-30T04:49:24;4.23;;;1.87;;
12469;SDS011;36499;46.484;13.832;2024-01-30T04:51:50;10.03;;;7.57;;
12469;SDS011;36499;46.484;13.832;2024-01-30T04:54:19;25.87;;;15.10;;
12469;SDS011;36499;46.484;13.832;2024-01-30T04:56:45;14.03;;;7.03;;
12469;SDS011;36499;46.484;13.832;2024-01-30T04:59:12;7.60;;;4.20;;
12469;SDS011;36499;46.484;13.832;2024-01-30T05:01:39;4.73;;;2.80;;
12469;SDS011;36499;46.484;13.832;2024-01-30T05:04:07;4.03;;;2.07;;
12469;SDS011;36499;46.484;13.832;2024-01-30T05:06:34;5.27;;;2.10;;
12469;SDS011;36499;46.484;13.832;2024-01-30T05:09:00;4.80;;;2.20;;
12469;SDS011;36499;46.484;13.832;2024-01-30T05:11:29;4.43;;;2.60;;
12469;SDS011;36499;46.484;13.832;2024-01-30T05:13:56;5.77;;;2.50;;
12469;SDS011;36499;46.484;13.832;2024-01-30T05:16:23;3.73;;;2.27;;
12469;SDS011;36499;46.484;13.832;2024-01-30T05:18:50;5.87;;;2.17;;
12469;SDS011;36499;46.484;13.832;2024-01-30T05:21:16;5.17;;;2.40;;
12469;SDS011;36499;46.484;13.832;2024-01-30T05:23:44;5.77;;;2.30;;
12469;SDS011;36499;46.484;13.832;2024-01-30T05:26:10;3.20;;;2.03;;
12469;SDS011;36499;46.484;13.832;2024-01-30T05:28:39;4.40;;;1.87;;
12469;SDS011;36499;46.484;13.832;2024-01-30T05:31:05;4.70;;;2.17;;
12469;SDS011;36499;46.484;13.832;2024-01-30T05:33:33;5.00;;;2.30;;
12469;SDS011;36499;46.484;13.832;2024-01-30T05:35:59;5.70;;;2.50;;
12469;SDS011;36499;46.484;13.832;2024-01-30T05:38:26;4.67;;;2.00;;
12469;SDS011;36499;46.484;13.832;2024-01-30T05:40:53;4.50;;;2.57;;
12469;SDS011;36499;46.484;13.832;2024-01-30T05:43:20;6.33;;;2.50;;
12469;SDS011;36499;46.484;13.832;2024-01-30T05:45:48;5.93;;;2.07;;
12469;SDS011;36499;46.484;13.832;2024-01-30T05:48:15;4.00;;;1.97;;
12469;SDS011;36499;46.484;13.832;2024-01-30T05:50:42;2.60;;;2.07;;
12469;SDS011;36499;46.484;13.832;2024-01-30T05:53:10;2.63;;;1.77;;
12469;SDS011;36499;46.484;13.832;2024-01-30T05:55:37;3.40;;;2.10;;
12469;SDS011;36499;46.484;13.832;2024-01-30T05:58:03;3.00;;;2.00;;
12469;SDS011;36499;46.484;13.832;2024-01-30T06:00:30;3.77;;;2.03;;
12469;SDS011;36499;46.484;13.832;2024-01-30T06:02:58;4.43;;;1.73;;
12469;SDS011;36499;46.484;13.832;2024-01-30T06:05:25;2.80;;;1.70;;
12469;SDS011;36499;46.484;13.832;2024-01-30T06:07:52;3.83;;;2.03;;
12469;SDS011;36499;46.484;13.832;2024-01-30T06:10:19;4.50;;;2.10;;
12469;SDS011;36499;46.484;13.832;2024-01-30T06:12:46;3.57;;;2.27;;
12469;SDS011;36499;46.484;13.832;2024-01-30T06:15:13;3.83;;;2.30;;
12469;SDS011;36499;46.484;13.832;2024-01-30T06:17:40;7.83;;;2.30;;
12469;SDS011;36499;46.484;13.832;2024-01-30T06:20:08;4.07;;;2.20;;
12469;SDS011;36499;46.484;13.832;2024-01-30T06:22:35;6.10;;;2.40;;
12469;SDS011;36499;46.484;13.832;2024-01-30T06:25:02;4.63;;;2.80;;
12469;SDS011;36499;46.484;13.832;2024-01-30T06:27:29;4.43;;;2.40;;
12469;SDS011;36499;46.484;13.832;2024-01-30T06:29:56;4.27;;;2.80;;
12469;SDS011;36499;46.484;13.832;2024-01-30T06:32:23;5.47;;;2.50;;
12469;SDS011;36499;46.484;13.832;2024-01-30T06:34:49;9.33;;;3.10;;
12469;SDS011;36499;46.484;13.832;2024-01-30T06:37:18;4.67;;;2.97;;
12469;SDS011;36499;46.484;13.832;2024-01-30T06:39:44;8.97;;;3.57;;
12469;SDS011;36499;46.484;13.832;2024-01-30T06:42:11;5.00;;;2.43;;
12469;SDS011;36499;46.484;13.832;2024-01-30T06:44:39;5.23;;;2.63;;
12469;SDS011;36499;46.484;13.832;2024-01-30T06:47:05;5.07;;;2.90;;
12469;SDS011;36499;46.484;13.832;2024-01-30T06:49:32;32.37;;;14.67;;
12469;SDS011;36499;46.484;13.832;2024-01-30T06:51:59;16.30;;;7.50;;
12469;SDS011;36499;46.484;13.832;2024-01-30T06:54:28;6.03;;;2.97;;
12469;SDS011;36499;46.484;13.832;2024-01-30T06:56:54;4.53;;;2.00;;
12469;SDS011;36499;46.484;13.832;2024-01-30T06:59:21;4.60;;;2.50;;
12469;SDS011;36499;46.484;13.832;2024-01-30T07:01:48;3.93;;;2.37;;
12469;SDS011;36499;46.484;13.832;2024-01-30T07:04:15;5.13;;;2.90;;
12469;SDS011;36499;46.484;13.832;2024-01-30T07:06:43;9.13;;;3.00;;
12469;SDS011;36499;46.484;13.832;2024-01-30T07:09:10;5.27;;;2.57;;
12469;SDS011;36499;46.484;13.832;2024-01-30T07:11:38;6.10;;;2.77;;
12469;SDS011;36499;46.484;13.832;2024-01-30T07:14:05;7.83;;;3.10;;
12469;SDS011;36499;46.484;13.832;2024-01-30T07:16:32;6.80;;;3.10;;
12469;SDS011;36499;46.484;13.832;2024-01-30T07:18:59;6.33;;;3.23;;
12469;SDS011;36499;46.484;13.832;2024-01-30T07:21:26;9.63;;;4.40;;
12469;SDS011;36499;46.484;13.832;2024-01-30T07:23:53;8.67;;;4.10;;
12469;SDS011;36499;46.484;13.832;2024-01-30T07:26:20;9.80;;;3.93;;
12469;SDS011;36499;46.484;13.832;2024-01-30T07:28:48;9.43;;;4.07;;
12469;SDS011;36499;46.484;13.832;2024-01-30T07:31:16;10.00;;;5.00;;
12469;SDS011;36499;46.484;13.832;2024-01-30T07:33:45;8.40;;;4.80;;
12469;SDS011;36499;46.484;13.832;2024-01-30T07:36:12;7.00;;;4.00;;
12469;SDS011;36499;46.484;13.832;2024-01-30T07:38:39;11.00;;;5.50;;
12469;SDS011;36499;46.484;13.832;2024-01-30T07:41:06;12.53;;;5.77;;
12469;SDS011;36499;46.484;13.832;2024-01-30T07:43:33;8.83;;;4.77;;
12469;SDS011;36499;46.484;13.832;2024-01-30T07:46:02;8.10;;;3.83;;
12469;SDS011;36499;46.484;13.832;2024-01-30T07:48:29;6.80;;;3.70;;
12469;SDS011;36499;46.484;13.832;2024-01-30T07:50:56;5.20;;;3.13;;
12469;SDS011;36499;46.484;13.832;2024-01-30T07:53:23;7.10;;;3.80;;
12469;SDS011;36499;46.484;13.832;2024-01-30T07:55:50;9.53;;;4.30;;
12469;SDS011;36499;46.484;13.832;2024-01-30T07:58:16;8.47;;;4.23;;
12469;SDS011;36499;46.484;13.832;2024-01-30T08:00:44;7.83;;;4.07;;
12469;SDS011;36499;46.484;13.832;2024-01-30T08:03:12;7.77;;;4.57;;
12469;SDS011;36499;46.484;13.832;2024-01-30T08:05:41;10.00;;;4.30;;
12469;SDS011;36499;46.484;13.832;2024-01-30T08:08:08;7.67;;;4.40;;
12469;SDS011;36499;46.484;13.832;2024-01-30T08:10:35;6.70;;;4.03;;
12469;SDS011;36499;46.484;13.832;2024-01-30T08:13:02;8.20;;;4.17;;
12469;SDS011;36499;46.484;13.832;2024-01-30T08:15:29;7.43;;;4.50;;
12469;SDS011;36499;46.484;13.832;2024-01-30T08:17:56;8.70;;;4.80;;
12469;SDS011;36499;46.484;13.832;2024-01-30T08:20:25;9.40;;;4.90;;
12469;SDS011;36499;46.484;13.832;2024-01-30T08:22:52;9.47;;;5.80;;
12469;SDS011;36499;46.484;13.832;2024-01-30T08:25:19;12.30;;;6.57;;
12469;SDS011;36499;46.484;13.832;2024-01-30T08:27:46;12.63;;;7.07;;
12469;SDS011;36499;46.484;13.832;2024-01-30T08:30:13;14.77;;;7.73;;
12469;SDS011;36499;46.484;13.832;2024-01-30T08:32:41;11.23;;;6.00;;
12469;SDS011;36499;46.484;13.832;2024-01-30T08:35:07;8.63;;;4.23;;
12469;SDS011;36499;46.484;13.832;2024-01-30T08:37:36;9.30;;;4.87;;
12469;SDS011;36499;46.484;13.832;2024-01-30T08:40:03;9.80;;;5.10;;
12469;SDS011;36499;46.484;13.832;2024-01-30T08:42:30;10.23;;;4.77;;
12469;SDS011;36499;46.484;13.832;2024-01-30T08:44:58;7.80;;;4.53;;
12469;SDS011;36499;46.484;13.832;2024-01-30T08:47:25;7.87;;;4.30;;
12469;SDS011;36499;46.484;13.832;2024-01-30T08:49:52;7.40;;;3.97;;
12469;SDS011;36499;46.484;13.832;2024-01-30T08:52:17;4.97;;;2.87;;
12469;SDS011;36499;46.484;13.832;2024-01-30T08:54:47;3.00;;;2.00;;
12469;SDS011;36499;46.484;13.832;2024-01-30T08:57:14;1.70;;;1.17;;
12469;SDS011;36499;46.484;13.832;2024-01-30T08:59:40;4.10;;;1.80;;
12469;SDS011;36499;46.484;13.832;2024-01-30T09:02:09;3.17;;;1.90;;
12469;SDS011;36499;46.484;13.832;2024-01-30T09:04:38;2.00;;;1.33;;
12469;SDS011;36499;46.484;13.832;2024-01-30T09:07:04;1.13;;;1.03;;
12469;SDS011;36499;46.484;13.832;2024-01-30T09:09:34;1.23;;;1.07;;
12469;SDS011;36499;46.484;13.832;2024-01-30T09:12:02;2.10;;;1.10;;
12469;SDS011;36499;46.484;13.832;2024-01-30T09:14:32;1.90;;;1.30;;
12469;SDS011;36499;46.484;13.832;2024-01-30T09:16:59;0.70;;;0.70;;
12469;SDS011;36499;46.484;13.832;2024-01-30T09:19:25;1.87;;;0.80;;
12469;SDS011;36499;46.484;13.832;2024-01-30T09:21:52;1.30;;;0.70;;
12469;SDS011;36499;46.484;13.832;2024-01-30T09:24:19;2.03;;;1.00;;
12469;SDS011;36499;46.484;13.832;2024-01-30T09:26:46;0.77;;;0.77;;
12469;SDS011;36499;46.484;13.832;2024-01-30T09:29:14;0.87;;;0.67;;
12469;SDS011;36499;46.484;13.832;2024-01-30T09:31:42;1.10;;;0.73;;
12469;SDS011;36499;46.484;13.832;2024-01-30T09:34:09;1.20;;;0.80;;
12469;SDS011;36499;46.484;13.832;2024-01-30T09:36:36;1.77;;;0.93;;
12469;SDS011;36499;46.484;13.832;2024-01-30T09:39:03;1.77;;;1.10;;
12469;SDS011;36499;46.484;13.832;2024-01-30T09:41:31;0.77;;;0.63;;
12469;SDS011;36499;46.484;13.832;2024-01-30T09:43:59;0.70;;;0.60;;
12469;SDS011;36499;46.484;13.832;2024-01-30T09:46:29;2.00;;;0.80;;
12469;SDS011;36499;46.484;13.832;2024-01-30T09:48:58;0.50;;;0.50;;
12469;SDS011;36499;46.484;13.832;2024-01-30T09:51:25;0.80;;;0.70;;
12469;SDS011;36499;46.484;13.832;2024-01-30T09:53:54;0.87;;;0.70;;
12469;SDS011;36499;46.484;13.832;2024-01-30T09:56:22;0.93;;;0.60;;
12469;SDS011;36499;46.484;13.832;2024-01-30T09:58:49;0.70;;;0.60;;
12469;SDS011;36499;46.484;13.832;2024-01-30T10:01:16;0.70;;;0.70;;
12469;SDS011;36499;46.484;13.832;2024-01-30T10:03:45;1.40;;;0.67;;
12469;SDS011;36499;46.484;13.832;2024-01-30T10:06:12;0.80;;;0.70;;
12469;SDS011;36499;46.484;13.832;2024-01-30T10:08:41;0.87;;;0.63;;
12469;SDS011;36499;46.484;13.832;2024-01-30T10:11:08;1.23;;;0.80;;
12469;SDS011;36499;46.484;13.832;2024-01-30T10:13:36;0.90;;;0.70;;
12469;SDS011;36499;46.484;13.832;2024-01-30T10:16:05;0.70;;;0.70;;
12469;SDS011;36499;46.484;13.832;2024-01-30T10:18:33;1.80;;;0.87;;
12469;SDS011;36499;46.484;13.832;2024-01-30T10:21:01;1.10;;;0.70;;
12469;SDS011;36499;46.484;13.832;2024-01-30T10:23:28;2.50;;;0.80;;
12469;SDS011;36499;46.484;13.832;2024-01-30T10:25:55;0.50;;;0.50;;
12469;SDS011;36499;46.484;13.832;2024-01-30T10:28:22;2.00;;;0.70;;
12469;SDS011;36499;46.484;13.832;2024-01-30T10:30:56;0.57;;;0.57;;
12469;SDS011;36499;46.484;13.832;2024-01-30T10:33:25;1.50;;;0.57;;
12469;SDS011;36499;46.484;13.832;2024-01-30T10:35:52;0.60;;;0.60;;
12469;SDS011;36499;46.484;13.832;2024-01-30T10:38:23;0.53;;;0.43;;
12469;SDS011;36499;46.484;13.832;2024-01-30T10:40:55;0.80;;;0.50;;
12469;SDS011;36499;46.484;13.832;2024-01-30T10:43:23;0.47;;;0.47;;
12469;SDS011;36499;46.484;13.832;2024-01-30T10:45:55;0.57;;;0.50;;
12469;SDS011;36499;46.484;13.832;2024-01-30T10:48:30;0.60;;;0.60;;
12469;SDS011;36499;46.484;13.832;2024-01-30T10:51:02;0.77;;;0.60;;
12469;SDS011;36499;46.484;13.832;2024-01-30T10:53:31;1.30;;;0.70;;
12469;SDS011;36499;46.484;13.832;2024-01-30T10:55:59;0.77;;;0.73;;
12469;SDS011;36499;46.484;13.832;2024-01-30T10:58:28;0.60;;;0.50;;
12469;SDS011;36499;46.484;13.832;2024-01-30T11:00:55;0.70;;;0.70;;
12469;SDS011;36499;46.484;13.832;2024-01-30T11:03:23;0.77;;;0.60;;
12469;SDS011;36499;46.484;13.832;2024-01-30T11:05:51;0.80;;;0.50;;
12469;SDS011;36499;46.484;13.832;2024-01-30T11:08:22;0.93;;;0.63;;
12469;SDS011;36499;46.484;13.832;2024-01-30T11:10:56;0.47;;;0.47;;
12469;SDS011;36499;46.484;13.832;2024-01-30T11:13:27;0.50;;;0.50;;
12469;SDS011;36499;46.484;13.832;2024-01-30T11:15:55;1.53;;;0.70;;
12469;SDS011;36499;46.484;13.832;2024-01-30T11:18:26;0.40;;;0.40;;
12469;SDS011;36499;46.484;13.832;2024-01-30T11:20:55;2.00;;;1.13;;
12469;SDS011;36499;46.484;13.832;2024-01-30T11:23:23;1.07;;;0.57;;
12469;SDS011;36499;46.484;13.832;2024-01-30T11:25:53;0.97;;;0.80;;
12469;SDS011;36499;46.484;13.832;2024-01-30T11:28:20;0.70;;;0.50;;
12469;SDS011;36499;46.484;13.832;2024-01-30T11:30:48;0.70;;;0.53;;
12469;SDS011;36499;46.484;13.832;2024-01-30T11:33:16;0.50;;;0.50;;
12469;SDS011;36499;46.484;13.832;2024-01-30T11:35:55;0.57;;;0.53;;
12469;SDS011;36499;46.484;13.832;2024-01-30T11:38:24;0.50;;;0.50;;
12469;SDS011;36499;46.484;13.832;2024-01-30T11:40:54;1.13;;;0.50;;
12469;SDS011;36499;46.484;13.832;2024-01-30T11:43:21;0.47;;;0.47;;
12469;SDS011;36499;46.484;13.832;2024-01-30T11:45:47;1.23;;;0.73;;
12469;SDS011;36499;46.484;13.832;2024-01-30T11:48:15;1.23;;;0.80;;
12469;SDS011;36499;46.484;13.832;2024-01-30T11:50:42;1.50;;;0.67;;
12469;SDS011;36499;46.484;13.832;2024-01-30T11:53:10;1.13;;;1.00;;
12469;SDS011;36499;46.484;13.832;2024-01-30T11:55:37;0.97;;;0.87;;
12469;SDS011;36499;46.484;13.832;2024-01-30T11:58:06;1.33;;;1.23;;
12469;SDS011;36499;46.484;13.832;2024-01-30T12:00:33;2.73;;;1.30;;
12469;SDS011;36499;46.484;13.832;2024-01-30T12:03:00;2.03;;;1.00;;
12469;SDS011;36499;46.484;13.832;2024-01-30T12:05:28;1.90;;;1.30;;
12469;SDS011;36499;46.484;13.832;2024-01-30T12:07:55;2.00;;;1.10;;
12469;SDS011;36499;46.484;13.832;2024-01-30T12:10:23;2.30;;;1.40;;
12469;SDS011;36499;46.484;13.832;2024-01-30T12:12:51;6.03;;;2.50;;
12469;SDS011;36499;46.484;13.832;2024-01-30T12:15:20;8.73;;;3.97;;
12469;SDS011;36499;46.484;13.832;2024-01-30T12:17:48;2.17;;;1.70;;
12469;SDS011;36499;46.484;13.832;2024-01-30T12:20:17;3.03;;;2.10;;
12469;SDS011;36499;46.484;13.832;2024-01-30T12:22:45;2.60;;;1.70;;
12469;SDS011;36499;46.484;13.832;2024-01-30T12:25:13;2.63;;;1.43;;
12469;SDS011;36499;46.484;13.832;2024-01-30T12:27:42;2.83;;;1.67;;
12469;SDS011;36499;46.484;13.832;2024-01-30T12:30:10;2.20;;;1.60;;
12469;SDS011;36499;46.484;13.832;2024-01-30T12:32:40;2.53;;;1.60;;
12469;SDS011;36499;46.484;13.832;2024-01-30T12:35:09;3.27;;;2.30;;
12469;SDS011;36499;46.484;13.832;2024-01-30T12:37:36;3.03;;;1.50;;
12469;SDS011;36499;46.484;13.832;2024-01-30T12:40:04;4.63;;;1.60;;
12469;SDS011;36499;46.484;13.832;2024-01-30T12:42:32;1.70;;;1.23;;
12469;SDS011;36499;46.484;13.832;2024-01-30T12:44:59;0.80;;;0.80;;
12469;SDS011;36499;46.484;13.832;2024-01-30T12:47:26;1.07;;;0.93;;
12469;SDS011;36499;46.484;13.832;2024-01-30T12:49:54;0.60;;;0.60;;
12469;SDS011;36499;46.484;13.832;2024-01-30T12:52:21;0.57;;;0.57;;
12469;SDS011;36499;46.484;13.832;2024-01-30T12:54:48;2.07;;;0.67;;
12469;SDS011;36499;46.484;13.832;2024-01-30T12:57:15;0.50;;;0.50;;
12469;SDS011;36499;46.484;13.832;2024-01-30T12:59:43;0.50;;;0.50;;
12469;SDS011;36499;46.484;13.832;2024-01-30T13:02:11;0.83;;;0.60;;
12469;SDS011;36499;46.484;13.832;2024-01-30T13:04:38;0.50;;;0.50;;
12469;SDS011;36499;46.484;13.832;2024-01-30T13:07:07;0.60;;;0.60;;
12469;SDS011;36499;46.484;13.832;2024-01-30T13:09:34;1.00;;;0.90;;
12469;SDS011;36499;46.484;13.832;2024-01-30T13:12:01;0.43;;;0.43;;
12469;SDS011;36499;46.484;13.832;2024-01-30T13:14:28;0.30;;;0.30;;
12469;SDS011;36499;46.484;13.832;2024-01-30T13:16:55;0.57;;;0.57;;
12469;SDS011;36499;46.484;13.832;2024-01-30T13:19:22;0.47;;;0.40;;
12469;SDS011;36499;46.484;13.832;2024-01-30T13:21:48;0.90;;;0.80;;
12469;SDS011;36499;46.484;13.832;2024-01-30T13:24:17;0.87;;;0.87;;
12469;SDS011;36499;46.484;13.832;2024-01-30T13:26:46;0.40;;;0.40;;
12469;SDS011;36499;46.484;13.832;2024-01-30T13:29:13;0.63;;;0.63;;
12469;SDS011;36499;46.484;13.832;2024-01-30T13:31:40;0.60;;;0.60;;
12469;SDS011;36499;46.484;13.832;2024-01-30T13:34:07;0.80;;;0.60;;
12469;SDS011;36499;46.484;13.832;2024-01-30T13:36:33;2.10;;;0.60;;
12469;SDS011;36499;46.484;13.832;2024-01-30T13:39:00;1.87;;;0.90;;
12469;SDS011;36499;46.484;13.832;2024-01-30T13:41:28;1.20;;;0.93;;
12469;SDS011;36499;46.484;13.832;2024-01-30T13:43:55;2.80;;;1.50;;
12469;SDS011;36499;46.484;13.832;2024-01-30T13:46:22;1.43;;;1.00;;
12469;SDS011;36499;46.484;13.832;2024-01-30T13:48:50;0.50;;;0.50;;
12469;SDS011;36499;46.484;13.832;2024-01-30T13:51:17;1.20;;;0.67;;
12469;SDS011;36499;46.484;13.832;2024-01-30T13:53:44;0.40;;;0.40;;
12469;SDS011;36499;46.484;13.832;2024-01-30T13:56:10;0.70;;;0.40;;
12469;SDS011;36499;46.484;13.832;2024-01-30T13:58:39;0.73;;;0.50;;
12469;SDS011;36499;46.484;13.832;2024-01-30T14:01:05;0.67;;;0.43;;
12469;SDS011;36499;46.484;13.832;2024-01-30T14:03:32;1.30;;;0.50;;
12469;SDS011;36499;46.484;13.832;2024-01-30T14:05:59;0.50;;;0.50;;
12469;SDS011;36499;46.484;13.832;2024-01-30T14:08:26;0.40;;;0.40;;
12469;SDS011;36499;46.484;13.832;2024-01-30T14:10:53;0.50;;;0.50;;
12469;SDS011;36499;46.484;13.832;2024-01-30T14:13:21;0.57;;;0.50;;
12469;SDS011;36499;46.484;13.832;2024-01-30T14:15:51;0.53;;;0.50;;
12469;SDS011;36499;46.484;13.832;2024-01-30T14:18:18;0.20;;;0.20;;
12469;SDS011;36499;46.484;13.832;2024-01-30T14:20:45;1.07;;;0.43;;
12469;SDS011;36499;46.484;13.832;2024-01-30T14:23:12;0.43;;;0.43;;
12469;SDS011;36499;46.484;13.832;2024-01-30T14:25:39;0.87;;;0.50;;
12469;SDS011;36499;46.484;13.832;2024-01-30T14:28:05;0.70;;;0.60;;
12469;SDS011;36499;46.484;13.832;2024-01-30T14:30:32;0.40;;;0.40;;
12469;SDS011;36499;46.484;13.832;2024-01-30T14:33:01;1.03;;;0.73;;
12469;SDS011;36499;46.484;13.832;2024-01-30T14:35:28;0.30;;;0.30;;
12469;SDS011;36499;46.484;13.832;2024-01-30T14:37:55;0.50;;;0.50;;